createdAt,value
2023-06-12T00:00:06.635Z,17.10
2023-06-12T00:01:04.209Z,17.10
2023-06-12T00:02:03.951Z,17.10
2023-06-12T00:03:03.930Z,17.10
2023-06-12T00:05:05.967Z,17.00
2023-06-12T00:06:03.517Z,17.00
2023-06-12T00:07:03.271Z,17.00
2023-06-12T00:08:03.939Z,17.00
2023-06-12T00:09:03.598Z,17.00
2023-06-12T00:10:05.933Z,16.80
2023-06-12T00:11:03.471Z,16.90
2023-06-12T00:12:09.109Z,16.80
2023-06-12T00:14:03.157Z,16.80
2023-06-12T00:15:03.852Z,16.80
2023-06-12T00:17:05.889Z,16.80
2023-06-12T00:18:03.463Z,16.80
2023-06-12T00:19:03.194Z,16.70
2023-06-12T00:20:06.430Z,16.80
2023-06-12T00:21:06.441Z,16.70
2023-06-12T00:22:06.468Z,16.70
2023-06-12T00:23:06.505Z,16.70
2023-06-12T00:24:04.021Z,16.70
2023-06-12T00:25:06.209Z,16.70
2023-06-12T00:26:03.679Z,16.70
2023-06-12T00:27:05.862Z,16.70
2023-06-12T00:28:03.313Z,16.70
2023-06-12T00:29:06.513Z,16.60
2023-06-12T00:30:04.005Z,16.60
2023-06-12T00:31:03.659Z,16.60
2023-06-12T00:32:03.352Z,16.60
2023-06-12T00:33:04.139Z,16.60
2023-06-12T00:34:05.960Z,16.60
2023-06-12T00:35:03.528Z,16.60
2023-06-12T00:36:05.780Z,16.50
2023-06-12T00:37:03.268Z,16.40
2023-06-12T00:38:03.894Z,16.50
2023-06-12T00:39:03.663Z,16.50
2023-06-12T00:40:03.389Z,16.50
2023-06-12T00:41:04.141Z,16.40
2023-06-12T00:42:03.759Z,16.50
2023-06-12T00:43:06.141Z,16.50
2023-06-12T00:44:03.690Z,16.40
2023-06-12T00:45:03.275Z,16.50
2023-06-12T00:46:03.942Z,16.40
2023-06-12T00:48:05.911Z,16.40
2023-06-12T00:49:03.516Z,16.40
2023-06-12T00:50:04.115Z,16.40
2023-06-12T00:52:03.388Z,16.30
2023-06-12T00:53:06.582Z,16.30
2023-06-12T00:54:04.127Z,16.20
2023-06-12T00:55:03.809Z,16.20
2023-06-12T00:56:03.552Z,16.20
2023-06-12T00:57:03.222Z,16.30
2023-06-12T00:58:03.845Z,16.20
2023-06-12T00:59:03.591Z,16.20
2023-06-12T01:00:06.502Z,16.10
2023-06-12T01:01:04.107Z,16.10
2023-06-12T01:02:06.366Z,16.10
2023-06-12T01:03:03.995Z,16.10
2023-06-12T01:04:03.740Z,16.20
2023-06-12T01:05:06.020Z,16.10
2023-06-12T01:06:06.138Z,16.10
2023-06-12T01:07:03.639Z,16.10
2023-06-12T01:08:03.265Z,16.10
2023-06-12T01:09:06.522Z,16.10
2023-06-12T01:10:04.019Z,16.10
2023-06-12T01:11:03.720Z,16.10
2023-06-12T01:12:03.609Z,16.10
2023-06-12T01:13:08.704Z,16.10
2023-06-12T01:14:03.167Z,16.00
2023-06-12T01:15:03.752Z,16.00
2023-06-12T01:16:03.835Z,16.00
2023-06-12T01:17:03.762Z,16.00
2023-06-12T01:18:03.764Z,16.00
2023-06-12T01:19:08.698Z,15.90
2023-06-12T01:20:03.264Z,15.90
2023-06-12T01:21:03.812Z,16.00
2023-06-12T01:22:05.977Z,16.00
2023-06-12T01:23:03.497Z,16.00
2023-06-12T01:24:03.858Z,16.00
2023-06-12T01:25:06.141Z,16.00
2023-06-12T01:26:03.690Z,16.00
2023-06-12T01:27:05.934Z,16.00
2023-06-12T01:28:06.061Z,16.00
2023-06-12T01:29:03.660Z,16.00
2023-06-12T01:30:03.350Z,16.00
2023-06-12T01:31:04.103Z,16.00
2023-06-12T01:32:03.979Z,16.00
2023-06-12T01:33:03.645Z,16.00
2023-06-12T01:34:08.511Z,15.90
2023-06-12T01:35:06.545Z,16.00
2023-06-12T01:36:09.090Z,15.90
2023-06-12T01:37:03.589Z,15.90
2023-06-12T01:38:03.262Z,15.90
2023-06-12T01:39:03.945Z,15.90
2023-06-12T01:40:06.164Z,15.90
2023-06-12T01:41:03.776Z,15.90
2023-06-12T01:42:05.997Z,15.80
2023-06-12T01:43:06.132Z,15.90
2023-06-12T01:44:03.623Z,15.80
2023-06-12T01:45:03.277Z,15.90
2023-06-12T01:46:03.986Z,15.80
2023-06-12T01:47:06.212Z,15.80
2023-06-12T01:48:07.047Z,15.80
2023-06-12T01:49:08.911Z,15.80
2023-06-12T01:50:03.305Z,15.80
2023-06-12T01:51:03.968Z,15.80
2023-06-12T01:53:03.338Z,15.80
2023-06-12T01:54:04.039Z,15.90
2023-06-12T01:55:03.752Z,15.80
2023-06-12T01:56:05.926Z,15.80
2023-06-12T01:57:03.354Z,15.80
2023-06-12T01:58:06.573Z,15.90
2023-06-12T01:59:04.069Z,15.90
2023-06-12T02:00:03.690Z,15.90
2023-06-12T02:01:03.375Z,15.90
2023-06-12T02:02:04.041Z,15.90
2023-06-12T02:04:08.535Z,15.90
2023-06-12T02:05:06.719Z,15.90
2023-06-12T02:07:11.370Z,15.90
2023-06-12T02:08:03.869Z,15.80
2023-06-12T02:10:03.749Z,15.80
2023-06-12T02:11:08.453Z,15.80
2023-06-12T02:12:06.419Z,15.80
2023-06-12T02:13:03.836Z,15.80
2023-06-12T02:14:03.482Z,15.70
2023-06-12T02:15:04.081Z,15.80
2023-06-12T02:17:03.429Z,15.80
2023-06-12T02:18:04.097Z,15.80
2023-06-12T02:19:03.811Z,15.70
2023-06-12T02:20:03.815Z,15.70
2023-06-12T02:21:05.967Z,15.70
2023-06-12T02:22:05.886Z,15.80
2023-06-12T02:23:03.295Z,15.70
2023-06-12T02:24:03.971Z,15.80
2023-06-12T02:25:03.496Z,15.70
2023-06-12T02:26:04.108Z,15.80
2023-06-12T02:27:06.451Z,15.80
2023-06-12T02:28:03.944Z,15.70
2023-06-12T02:29:08.247Z,15.70
2023-06-12T02:30:08.242Z,15.70
2023-06-12T02:31:06.273Z,15.70
2023-06-12T02:32:03.783Z,15.70
2023-06-12T02:34:03.867Z,15.60
2023-06-12T02:35:05.706Z,15.60
2023-06-12T02:36:03.212Z,15.60
2023-06-12T02:37:06.448Z,15.50
2023-06-12T02:38:03.597Z,15.50
2023-06-12T02:39:03.148Z,15.50
2023-06-12T02:40:03.776Z,15.40
2023-06-12T02:41:03.412Z,15.40
2023-06-12T02:42:09.121Z,15.30
2023-06-12T02:43:04.053Z,15.40
2023-06-12T02:44:03.728Z,15.50
2023-06-12T02:45:03.461Z,15.30
2023-06-12T02:46:04.126Z,15.30
2023-06-12T02:48:05.884Z,15.20
2023-06-12T02:49:03.590Z,15.20
2023-06-12T02:50:03.481Z,15.20
2023-06-12T02:51:03.215Z,15.20
2023-06-12T02:52:03.893Z,15.10
2023-06-12T02:54:04.117Z,15.10
2023-06-12T02:56:05.829Z,15.10
2023-06-12T02:57:03.263Z,15.10
2023-06-12T02:58:03.828Z,15.10
2023-06-12T02:59:09.074Z,15.10
2023-06-12T03:00:03.682Z,15.10
2023-06-12T03:01:08.824Z,15.10
2023-06-12T03:03:06.864Z,15.00
2023-06-12T03:04:06.176Z,15.00
2023-06-12T03:05:03.788Z,15.10
2023-06-12T03:06:06.067Z,15.00
2023-06-12T03:07:06.200Z,15.00
2023-06-12T03:08:03.855Z,15.00
2023-06-12T03:09:03.611Z,15.00
2023-06-12T03:11:03.849Z,15.00
2023-06-12T03:12:03.578Z,14.90
2023-06-12T03:13:03.338Z,14.90
2023-06-12T03:14:03.990Z,14.90
2023-06-12T03:15:06.352Z,14.90
2023-06-12T03:16:06.720Z,14.80
2023-06-12T03:18:05.988Z,14.80
2023-06-12T03:19:03.685Z,14.80
2023-06-12T03:20:03.242Z,14.80
2023-06-12T03:21:06.328Z,14.80
2023-06-12T03:22:03.820Z,14.80
2023-06-12T03:23:05.958Z,14.80
2023-06-12T03:24:03.514Z,14.80
2023-06-12T03:25:04.208Z,14.80
2023-06-12T03:26:03.918Z,14.80
2023-06-12T03:27:06.205Z,14.80
2023-06-12T03:28:06.240Z,14.80
2023-06-12T03:29:06.207Z,14.80
2023-06-12T03:30:06.369Z,14.70
2023-06-12T03:31:06.080Z,14.80
2023-06-12T03:32:06.272Z,14.80
2023-06-12T03:33:06.454Z,14.80
2023-06-12T03:34:06.704Z,14.80
2023-06-12T03:36:05.773Z,14.90
2023-06-12T03:37:03.301Z,14.80
2023-06-12T03:38:04.083Z,14.80
2023-06-12T03:39:05.687Z,14.80
2023-06-12T03:40:03.242Z,14.80
2023-06-12T03:41:03.768Z,14.90
2023-06-12T03:42:03.345Z,15.00
2023-06-12T03:43:06.674Z,15.00
2023-06-12T03:45:03.898Z,15.10
2023-06-12T03:46:06.092Z,15.20
2023-06-12T03:47:06.305Z,15.20
2023-06-12T03:48:04.127Z,15.20
2023-06-12T03:49:03.871Z,15.40
2023-06-12T03:50:08.662Z,15.40
2023-06-12T03:51:03.644Z,15.30
2023-06-12T03:52:08.785Z,15.50
2023-06-12T03:53:03.337Z,15.50
2023-06-12T03:54:03.934Z,15.50
2023-06-12T03:55:03.551Z,15.60
2023-06-12T03:56:06.616Z,15.60
2023-06-12T03:57:04.110Z,15.60
2023-06-12T03:58:03.665Z,15.60
2023-06-12T03:59:08.467Z,15.50
2023-06-12T04:00:04.118Z,15.60
2023-06-12T04:01:03.741Z,15.50
2023-06-12T04:02:08.469Z,15.50
2023-06-12T04:03:04.122Z,15.50
2023-06-12T04:04:06.328Z,15.50
2023-06-12T04:05:06.580Z,15.60
2023-06-12T04:06:09.184Z,15.70
2023-06-12T04:07:08.906Z,15.80
2023-06-12T04:08:05.976Z,16.00
2023-06-12T04:09:03.483Z,16.10
2023-06-12T04:10:06.759Z,16.40
2023-06-12T04:12:03.998Z,16.60
2023-06-12T04:13:11.264Z,16.90
2023-06-12T04:14:06.254Z,17.10
2023-06-12T04:15:03.711Z,17.10
2023-06-12T04:16:05.957Z,17.50
2023-06-12T04:17:03.646Z,17.50
2023-06-12T04:18:11.240Z,17.80
2023-06-12T04:19:03.873Z,17.80
2023-06-12T04:20:03.497Z,17.90
2023-06-12T04:21:05.703Z,18.20
2023-06-12T04:22:03.388Z,18.20
2023-06-12T04:23:04.004Z,18.30
2023-06-12T04:24:06.247Z,18.50
2023-06-12T04:25:09.427Z,18.50
2023-06-12T04:26:04.013Z,18.60
2023-06-12T04:27:06.166Z,18.60
2023-06-12T04:28:08.753Z,18.60
2023-06-12T04:29:05.949Z,18.60
2023-06-12T04:30:06.058Z,18.50
2023-06-12T04:31:03.714Z,18.50
2023-06-12T04:32:06.385Z,18.60
2023-06-12T04:33:06.503Z,18.60
2023-06-12T04:34:04.465Z,18.60
2023-06-12T04:36:06.155Z,18.80
2023-06-12T04:37:03.701Z,18.80
2023-06-12T04:38:08.381Z,19.10
2023-06-12T04:39:03.922Z,19.00
2023-06-12T04:40:03.599Z,19.20
2023-06-12T04:41:08.350Z,19.40
2023-06-12T04:42:08.929Z,19.50
2023-06-12T04:43:06.050Z,19.70
2023-06-12T04:44:03.696Z,19.70
2023-06-12T04:45:05.954Z,20.00
2023-06-12T04:46:03.720Z,19.90
2023-06-12T04:47:03.612Z,20.10
2023-06-12T04:48:03.327Z,20.20
2023-06-12T04:49:06.100Z,20.30
2023-06-12T04:50:03.801Z,20.30
2023-06-12T04:51:03.512Z,20.40
2023-06-12T04:53:06.294Z,20.50
2023-06-12T04:54:05.965Z,20.50
2023-06-12T04:55:04.128Z,20.60
2023-06-12T04:56:03.815Z,20.60
2023-06-12T04:57:03.433Z,20.70
2023-06-12T04:58:06.640Z,20.80
2023-06-12T04:59:04.090Z,20.80
2023-06-12T05:00:06.231Z,20.90
2023-06-12T05:01:03.818Z,20.90
2023-06-12T05:02:08.596Z,20.90
2023-06-12T05:03:04.273Z,20.90
2023-06-12T05:04:03.978Z,21.00
2023-06-12T05:05:06.288Z,21.10
2023-06-12T05:06:03.869Z,21.10
2023-06-12T05:07:03.564Z,21.10
2023-06-12T05:09:03.987Z,21.20
2023-06-12T05:10:03.675Z,21.20
2023-06-12T05:11:03.357Z,21.30
2023-06-12T05:12:06.503Z,21.30
2023-06-12T05:13:06.690Z,21.30
2023-06-12T05:15:06.330Z,21.40
2023-06-12T05:16:03.832Z,21.40
2023-06-12T05:17:03.691Z,21.40
2023-06-12T05:18:06.453Z,21.50
2023-06-12T05:19:05.664Z,21.50
2023-06-12T05:20:05.779Z,21.50
2023-06-12T05:21:03.277Z,21.50
2023-06-12T05:22:03.966Z,21.50
2023-06-12T05:23:08.774Z,21.60
2023-06-12T05:24:03.373Z,21.50
2023-06-12T05:25:09.323Z,21.60
2023-06-12T05:26:06.405Z,21.70
2023-06-12T05:27:03.861Z,21.70
2023-06-12T05:28:11.202Z,21.70
2023-06-12T05:29:06.313Z,21.80
2023-06-12T05:30:08.866Z,21.80
2023-06-12T05:31:06.021Z,21.90
2023-06-12T05:32:03.705Z,21.80
2023-06-12T05:34:04.081Z,21.90
2023-06-12T05:35:03.711Z,21.90
2023-06-12T05:36:03.429Z,21.90
2023-06-12T05:37:05.719Z,22.00
2023-06-12T05:38:05.879Z,22.10
2023-06-12T05:39:05.342Z,22.00
2023-06-12T05:40:06.050Z,22.10
2023-06-12T05:41:08.906Z,22.20
2023-06-12T05:43:04.078Z,22.30
2023-06-12T05:44:11.404Z,22.40
2023-06-12T05:46:03.438Z,22.50
2023-06-12T05:47:10.674Z,22.70
2023-06-12T05:48:04.106Z,22.60
2023-06-12T05:49:06.310Z,22.80
2023-06-12T05:50:03.867Z,22.80
2023-06-12T05:51:03.992Z,22.80
2023-06-12T05:52:04.258Z,22.90
2023-06-12T05:53:03.512Z,23.00
2023-06-12T05:54:06.771Z,23.00
2023-06-12T05:56:05.286Z,23.10
2023-06-12T05:58:06.462Z,23.20
2023-06-12T05:59:06.272Z,23.30
2023-06-12T06:00:06.357Z,23.30
2023-06-12T06:01:03.935Z,23.20
2023-06-12T06:02:08.582Z,23.20
2023-06-12T06:03:04.564Z,23.20
2023-06-12T06:04:03.400Z,23.30
2023-06-12T06:05:03.648Z,23.40
2023-06-12T06:06:06.100Z,23.50
2023-06-12T06:07:17.388Z,23.40
2023-06-12T06:08:05.978Z,23.60
2023-06-12T06:09:06.136Z,23.70
2023-06-12T06:10:03.655Z,23.70
2023-06-12T06:11:03.360Z,23.80
2023-06-12T06:12:04.129Z,23.90
2023-06-12T06:13:08.848Z,24.10
2023-06-12T06:14:03.415Z,24.10
2023-06-12T06:15:04.088Z,24.20
2023-06-12T06:16:03.916Z,24.20
2023-06-12T06:17:03.613Z,24.30
2023-06-12T06:18:05.969Z,24.40
2023-06-12T06:19:03.563Z,24.30
2023-06-12T06:20:03.209Z,24.40
2023-06-12T06:21:06.413Z,24.50
2023-06-12T06:22:06.649Z,24.40
2023-06-12T06:23:05.806Z,24.50
2023-06-12T06:24:03.678Z,24.40
2023-06-12T06:25:03.557Z,24.40
2023-06-12T06:27:04.107Z,24.50
2023-06-12T06:28:06.298Z,24.60
2023-06-12T06:29:12.634Z,24.50
2023-06-12T06:30:06.341Z,24.60
2023-06-12T06:31:03.860Z,24.60
2023-06-12T06:32:03.708Z,24.60
2023-06-12T06:33:06.204Z,24.60
2023-06-12T06:34:03.931Z,24.60
2023-06-12T06:35:03.652Z,24.60
2023-06-12T06:36:03.355Z,24.70
2023-06-12T06:37:03.979Z,24.80
2023-06-12T06:39:03.349Z,24.90
2023-06-12T06:40:09.089Z,25.00
2023-06-12T06:41:06.263Z,25.10
2023-06-12T06:42:08.887Z,25.00
2023-06-12T06:43:06.022Z,25.00
2023-06-12T06:44:03.555Z,25.00
2023-06-12T06:45:03.235Z,24.90
2023-06-12T06:46:13.952Z,24.90
2023-06-12T06:48:05.838Z,25.00
2023-06-12T06:49:03.512Z,24.90
2023-06-12T06:50:03.189Z,24.90
2023-06-12T06:51:03.906Z,25.00
2023-06-12T06:52:06.151Z,25.10
2023-06-12T06:53:06.232Z,25.10
2023-06-12T06:54:06.325Z,25.20
2023-06-12T06:55:03.838Z,25.20
2023-06-12T06:56:03.497Z,25.20
2023-06-12T06:57:06.087Z,25.20
2023-06-12T06:58:06.522Z,25.20
2023-06-12T06:59:04.014Z,25.20
2023-06-12T07:00:03.765Z,25.20
2023-06-12T07:01:03.459Z,25.20
2023-06-12T07:02:04.074Z,25.10
2023-06-12T07:03:06.338Z,25.20
2023-06-12T07:04:06.562Z,25.10
2023-06-12T07:05:05.923Z,25.10
2023-06-12T07:06:03.417Z,25.00
2023-06-12T07:07:03.236Z,25.00
2023-06-12T07:08:11.573Z,24.90
2023-06-12T07:09:04.064Z,24.90
2023-06-12T07:10:03.674Z,24.90
2023-06-12T07:11:03.329Z,24.80
2023-06-12T07:12:09.090Z,24.80
2023-06-12T07:13:03.608Z,24.80
2023-06-12T07:14:03.278Z,24.80
2023-06-12T07:15:03.886Z,24.80
2023-06-12T07:16:08.621Z,24.80
2023-06-12T07:17:03.381Z,24.80
2023-06-12T07:18:09.214Z,24.90
2023-06-12T07:19:03.957Z,24.90
2023-06-12T07:20:03.666Z,24.90
2023-06-12T07:21:03.515Z,25.00
2023-06-12T07:22:03.246Z,25.00
2023-06-12T07:23:10.022Z,25.00
2023-06-12T07:24:13.781Z,25.10
2023-06-12T07:25:03.560Z,25.10
2023-06-12T07:26:18.444Z,25.10
2023-06-12T07:27:06.361Z,25.10
2023-06-12T07:28:03.880Z,25.10
2023-06-12T07:30:08.523Z,25.20
2023-06-12T07:31:04.146Z,25.20
2023-06-12T07:33:03.619Z,25.30
2023-06-12T07:34:05.540Z,25.30
2023-06-12T07:35:03.569Z,25.40
2023-06-12T07:36:03.293Z,25.40
2023-06-12T07:37:11.557Z,25.40
2023-06-12T07:38:06.708Z,25.50
2023-06-12T07:40:09.141Z,25.60
2023-06-12T07:42:16.179Z,25.60
2023-06-12T07:43:03.785Z,25.60
2023-06-12T07:44:03.501Z,25.60
2023-06-12T07:45:04.202Z,25.60
2023-06-12T07:47:03.772Z,25.60
2023-06-12T07:48:06.216Z,25.60
2023-06-12T07:49:03.898Z,25.60
2023-06-12T07:50:03.559Z,25.60
2023-06-12T07:51:05.817Z,25.60
2023-06-12T07:52:03.382Z,25.60
2023-06-12T07:53:03.965Z,25.60
2023-06-12T07:55:03.273Z,25.60
2023-06-12T07:56:06.538Z,25.50
2023-06-12T07:57:09.190Z,25.50
2023-06-12T07:58:08.798Z,25.50
2023-06-12T07:59:08.585Z,25.40
2023-06-12T08:00:06.685Z,25.40
2023-06-12T08:01:05.779Z,25.40
2023-06-12T08:02:05.867Z,25.40
2023-06-12T08:03:10.971Z,25.40
2023-06-12T08:04:06.716Z,25.40
2023-06-12T08:06:05.115Z,25.40
2023-06-12T08:07:04.030Z,25.40
2023-06-12T08:08:03.707Z,25.40
2023-06-12T08:09:03.399Z,25.40
2023-06-12T08:10:04.077Z,25.40
2023-06-12T08:11:03.653Z,25.40
2023-06-12T08:12:03.343Z,25.40
2023-06-12T08:13:06.584Z,25.30
2023-06-12T08:14:04.120Z,25.30
2023-06-12T08:15:06.188Z,25.30
2023-06-12T08:16:06.218Z,25.30
2023-06-12T08:17:03.750Z,25.30
2023-06-12T08:18:03.531Z,25.20
2023-06-12T08:19:03.383Z,25.20
2023-06-12T08:21:06.451Z,25.10
2023-06-12T08:22:04.051Z,25.20
2023-06-12T08:23:06.238Z,25.30
2023-06-12T08:24:03.817Z,25.20
2023-06-12T08:25:06.075Z,25.30
2023-06-12T08:26:03.755Z,25.30
2023-06-12T08:27:03.515Z,25.30
2023-06-12T08:28:03.231Z,25.30
2023-06-12T08:29:06.499Z,25.30
2023-06-12T08:30:04.130Z,25.30
2023-06-12T08:31:06.343Z,25.30
2023-06-12T08:32:06.581Z,25.20
2023-06-12T08:33:06.736Z,25.20
2023-06-12T08:34:05.957Z,25.30
2023-06-12T08:35:03.535Z,25.20
2023-06-12T08:36:06.685Z,25.20
2023-06-12T08:37:05.852Z,25.30
2023-06-12T08:38:03.385Z,25.30
2023-06-12T08:39:06.556Z,25.40
2023-06-12T08:40:04.162Z,25.40
2023-06-12T08:41:06.403Z,25.50
2023-06-12T08:42:06.374Z,25.60
2023-06-12T08:43:06.402Z,25.60
2023-06-12T08:44:06.520Z,25.70
2023-06-12T08:45:15.873Z,25.60
2023-06-12T08:47:03.595Z,25.70
2023-06-12T08:48:05.918Z,25.70
2023-06-12T08:49:03.578Z,25.70
2023-06-12T08:50:05.785Z,25.60
2023-06-12T08:51:05.958Z,25.50
2023-06-12T08:52:08.581Z,25.60
2023-06-12T08:53:09.171Z,25.60
2023-06-12T08:54:03.674Z,25.60
2023-06-12T08:55:03.347Z,25.60
2023-06-12T08:56:04.155Z,25.60
2023-06-12T08:58:04.516Z,25.50
2023-06-12T09:00:06.301Z,25.50
2023-06-12T09:01:03.883Z,25.60
2023-06-12T09:02:12.835Z,25.60
2023-06-12T09:03:03.960Z,25.50
2023-06-12T09:04:03.868Z,25.50
2023-06-12T09:05:03.718Z,25.40
2023-06-12T09:06:03.892Z,25.40
2023-06-12T09:07:08.708Z,25.30
2023-06-12T09:08:03.272Z,25.30
2023-06-12T09:09:06.550Z,25.40
2023-06-12T09:10:13.263Z,25.40
2023-06-12T09:11:06.400Z,25.30
2023-06-12T09:12:03.852Z,25.20
2023-06-12T09:13:03.492Z,25.20
2023-06-12T09:15:03.780Z,25.20
2023-06-12T09:17:05.812Z,25.10
2023-06-12T09:18:03.615Z,25.10
2023-06-12T09:19:03.382Z,25.10
2023-06-12T09:20:03.277Z,25.00
2023-06-12T09:21:04.089Z,25.10
2023-06-12T09:23:03.367Z,25.10
2023-06-12T09:24:04.000Z,25.20
2023-06-12T09:25:06.376Z,25.40
2023-06-12T09:26:14.384Z,25.30
2023-06-12T09:28:05.856Z,25.60
2023-06-12T09:29:08.917Z,25.50
2023-06-12T09:31:03.354Z,25.60
2023-06-12T09:32:04.242Z,25.60
2023-06-12T09:33:04.123Z,25.60
2023-06-12T09:34:04.077Z,25.50
2023-06-12T09:36:03.529Z,25.40
2023-06-12T09:37:05.784Z,25.40
2023-06-12T09:38:03.328Z,25.40
2023-06-12T09:39:04.060Z,25.40
2023-06-12T09:41:03.275Z,25.40
2023-06-12T09:42:04.144Z,25.40
2023-06-12T09:43:11.232Z,25.40
2023-06-12T09:44:03.747Z,25.40
2023-06-12T09:45:03.466Z,25.40
2023-06-12T09:46:04.151Z,25.40
2023-06-12T09:47:04.110Z,25.30
2023-06-12T09:48:03.893Z,25.30
2023-06-12T09:50:03.328Z,25.20
2023-06-12T09:51:06.502Z,25.20
2023-06-12T09:52:04.045Z,25.20
2023-06-12T09:53:08.848Z,25.20
2023-06-12T09:54:03.502Z,25.20
2023-06-12T09:55:04.114Z,25.20
2023-06-12T09:56:06.343Z,25.10
2023-06-12T09:57:03.863Z,25.20
2023-06-12T09:58:03.537Z,25.20
2023-06-12T09:59:05.825Z,25.10
2023-06-12T10:00:03.313Z,25.10
2023-06-12T10:01:09.237Z,25.10
2023-06-12T10:02:05.975Z,25.20
2023-06-12T10:03:03.752Z,25.10
2023-06-12T10:04:08.600Z,25.20
2023-06-12T10:06:03.910Z,25.20
2023-06-12T10:07:03.573Z,25.30
2023-06-12T10:08:05.992Z,25.40
2023-06-12T10:09:06.043Z,25.40
2023-06-12T10:10:03.482Z,25.40
2023-06-12T10:11:06.639Z,25.20
2023-06-12T10:13:06.366Z,25.20
2023-06-12T10:14:03.933Z,25.20
2023-06-12T10:15:03.613Z,25.30
2023-06-12T10:16:06.225Z,25.20
2023-06-12T10:17:03.862Z,25.20
2023-06-12T10:18:03.707Z,25.30
2023-06-12T10:19:05.972Z,25.40
2023-06-12T10:20:05.977Z,25.40
2023-06-12T10:21:03.603Z,25.50
2023-06-12T10:22:03.628Z,25.50
2023-06-12T10:23:08.516Z,25.60
2023-06-12T10:24:03.990Z,25.70
2023-06-12T10:25:08.774Z,25.70
2023-06-12T10:26:03.362Z,25.70
2023-06-12T10:27:04.055Z,25.70
2023-06-12T10:28:06.155Z,25.60
2023-06-12T10:29:03.592Z,25.60
2023-06-12T10:30:03.324Z,25.50
2023-06-12T10:31:06.734Z,25.40
2023-06-12T10:32:06.075Z,25.40
2023-06-12T10:33:06.501Z,25.40
2023-06-12T10:34:04.171Z,25.40
2023-06-12T10:35:06.320Z,25.50
2023-06-12T10:36:03.872Z,25.50
2023-06-12T10:37:05.979Z,25.50
2023-06-12T10:38:06.070Z,25.50
2023-06-12T10:39:03.695Z,25.40
2023-06-12T10:40:05.871Z,25.40
2023-06-12T10:41:03.286Z,25.40
2023-06-12T10:42:06.476Z,25.50
2023-06-12T10:43:06.733Z,25.50
2023-06-12T10:45:06.468Z,25.50
2023-06-12T10:46:04.150Z,25.50
2023-06-12T10:47:03.790Z,25.50
2023-06-12T10:49:06.610Z,25.50
2023-06-12T10:51:06.534Z,25.40
2023-06-12T10:52:04.166Z,25.40
2023-06-12T10:53:03.812Z,25.40
2023-06-12T10:54:11.022Z,25.50
2023-06-12T10:55:06.048Z,25.50
2023-06-12T10:56:03.586Z,25.50
2023-06-12T10:57:03.373Z,25.60
2023-06-12T10:58:03.393Z,25.60
2023-06-12T10:59:05.762Z,25.60
2023-06-12T11:00:05.787Z,25.60
2023-06-12T11:01:05.871Z,25.60
2023-06-12T11:02:03.731Z,25.60
2023-06-12T11:03:03.513Z,25.60
2023-06-12T11:04:06.366Z,25.60
2023-06-12T11:05:06.556Z,25.70
2023-06-12T11:06:08.592Z,25.70
2023-06-12T11:07:03.204Z,25.70
2023-06-12T11:08:04.028Z,25.70
2023-06-12T11:09:06.349Z,25.70
2023-06-12T11:10:03.936Z,25.70
2023-06-12T11:11:08.617Z,25.70
2023-06-12T11:12:03.192Z,25.70
2023-06-12T11:13:03.908Z,25.70
2023-06-12T11:14:03.700Z,25.60
2023-06-12T11:15:03.490Z,25.60
2023-06-12T11:16:06.660Z,25.60
2023-06-12T11:18:06.678Z,25.50
2023-06-12T11:19:03.449Z,25.60
2023-06-12T11:20:03.922Z,25.60
2023-06-12T11:21:06.195Z,25.40
2023-06-12T11:22:03.806Z,25.60
2023-06-12T11:23:06.073Z,25.50
2023-06-12T11:24:06.197Z,25.70
2023-06-12T11:25:06.425Z,25.60
2023-06-12T11:26:06.615Z,25.60
2023-06-12T11:27:04.057Z,25.60
2023-06-12T11:28:06.201Z,25.60
2023-06-12T11:29:03.749Z,25.60
2023-06-12T11:30:07.896Z,25.60
2023-06-12T11:31:10.764Z,25.60
2023-06-12T11:32:03.529Z,25.60
2023-06-12T11:33:03.218Z,25.60
2023-06-12T11:34:03.934Z,25.60
2023-06-12T11:35:06.283Z,25.60
2023-06-12T11:36:06.504Z,25.60
2023-06-12T11:37:04.130Z,25.60
2023-06-12T11:40:04.020Z,25.50
2023-06-12T11:41:03.585Z,25.50
2023-06-12T11:42:03.431Z,25.50
2023-06-12T11:43:06.621Z,25.50
2023-06-12T11:45:03.273Z,25.50
2023-06-12T11:46:04.249Z,25.50
2023-06-12T11:51:04.041Z,25.60
2023-06-12T11:53:03.484Z,25.60
2023-06-12T11:54:03.237Z,25.60
2023-06-12T11:57:04.537Z,25.60
2023-06-12T11:58:03.348Z,25.60
2023-06-12T11:59:04.123Z,25.70
2023-06-12T12:01:03.515Z,25.80
2023-06-12T12:02:05.764Z,25.90
2023-06-12T12:03:03.505Z,25.80
2023-06-12T12:04:03.304Z,25.90
2023-06-12T12:05:06.725Z,25.90
2023-06-12T12:07:03.959Z,25.90
2023-06-12T12:08:03.624Z,25.90
2023-06-12T12:09:03.274Z,26.00
2023-06-12T12:10:06.583Z,26.00
2023-06-12T12:11:04.182Z,26.00
2023-06-12T12:12:06.433Z,25.90
2023-06-12T12:13:06.601Z,25.90
2023-06-12T12:14:06.595Z,25.90
2023-06-12T12:15:04.111Z,25.90
2023-06-12T12:17:04.080Z,25.90
2023-06-12T12:19:03.277Z,25.80
2023-06-12T12:20:04.105Z,25.80
2023-06-12T12:21:03.759Z,25.70
2023-06-12T12:22:05.974Z,25.80
2023-06-12T12:23:03.930Z,25.80
2023-06-12T12:24:06.183Z,25.80
2023-06-12T12:25:03.904Z,25.80
2023-06-12T12:26:03.542Z,25.80
2023-06-12T12:27:03.297Z,25.80
2023-06-12T12:28:06.529Z,25.70
2023-06-12T12:29:04.153Z,25.80
2023-06-12T12:30:08.850Z,25.70
2023-06-12T12:31:03.494Z,25.70
2023-06-12T12:32:05.763Z,25.70
2023-06-12T12:33:03.301Z,25.70
2023-06-12T12:34:04.076Z,25.80
2023-06-12T12:35:06.366Z,25.90
2023-06-12T12:36:06.708Z,25.90
2023-06-12T12:38:03.867Z,25.90
2023-06-12T12:39:03.508Z,26.00
2023-06-12T12:40:06.600Z,25.90
2023-06-12T12:41:04.164Z,25.80
2023-06-12T12:42:03.814Z,25.80
2023-06-12T12:43:03.410Z,25.80
2023-06-12T12:44:06.570Z,25.80
2023-06-12T12:45:04.125Z,25.80
2023-06-12T12:46:03.764Z,25.90
2023-06-12T12:47:03.474Z,25.80
2023-06-12T12:48:03.444Z,25.90
2023-06-12T12:50:06.137Z,25.90
2023-06-12T12:51:09.465Z,25.90
2023-06-12T12:52:03.875Z,25.90
2023-06-12T12:53:03.708Z,26.00
2023-06-12T12:54:03.438Z,26.00
2023-06-12T12:55:06.653Z,25.90
2023-06-12T12:56:04.152Z,25.90
2023-06-12T12:57:03.910Z,25.90
2023-06-12T12:59:06.541Z,26.10
2023-06-12T13:00:04.068Z,26.10
2023-06-12T13:01:06.224Z,26.10
2023-06-12T13:02:06.493Z,26.10
2023-06-12T13:03:06.687Z,26.10
2023-06-12T13:05:04.035Z,26.10
2023-06-12T13:06:03.704Z,26.00
2023-06-12T13:07:03.339Z,26.00
2023-06-12T13:08:04.046Z,26.00
2023-06-12T13:09:06.254Z,26.00
2023-06-12T13:10:03.790Z,25.90
2023-06-12T13:11:03.527Z,25.90
2023-06-12T13:13:03.697Z,25.90
2023-06-12T13:14:03.729Z,25.90
2023-06-12T13:15:03.319Z,26.00
2023-06-12T13:16:03.977Z,26.00
2023-06-12T13:17:06.244Z,26.00
2023-06-12T13:18:06.470Z,26.00
2023-06-12T13:19:04.098Z,26.00
2023-06-12T13:20:03.855Z,26.10
2023-06-12T13:21:03.574Z,26.10
2023-06-12T13:22:03.210Z,26.10
2023-06-12T13:23:03.810Z,26.20
2023-06-12T13:25:05.884Z,26.40
2023-06-12T13:26:03.451Z,26.40
2023-06-12T13:27:04.189Z,26.40
2023-06-12T13:28:03.972Z,26.40
2023-06-12T13:29:03.834Z,26.40
2023-06-12T13:31:05.926Z,26.20
2023-06-12T13:32:03.525Z,26.30
2023-06-12T13:33:05.992Z,26.30
2023-06-12T13:34:03.710Z,26.30
2023-06-12T13:35:03.404Z,26.30
2023-06-12T13:36:06.742Z,26.20
2023-06-12T13:37:05.906Z,26.30
2023-06-12T13:38:03.450Z,26.20
2023-06-12T13:39:04.125Z,26.20
2023-06-12T13:40:06.485Z,26.10
2023-06-12T13:41:04.049Z,26.10
2023-06-12T13:42:06.220Z,26.10
2023-06-12T13:43:03.742Z,26.10
2023-06-12T13:44:03.302Z,26.10
2023-06-12T13:45:04.079Z,26.10
2023-06-12T13:46:08.293Z,26.10
2023-06-12T13:47:03.454Z,26.10
2023-06-12T13:48:04.461Z,26.10
2023-06-12T13:49:08.362Z,26.10
2023-06-12T13:50:06.344Z,26.10
2023-06-12T13:51:03.861Z,26.10
2023-06-12T13:52:03.670Z,26.10
2023-06-12T13:53:05.892Z,26.10
2023-06-12T13:54:05.883Z,26.10
2023-06-12T13:55:08.527Z,26.00
2023-06-12T13:56:04.223Z,26.00
2023-06-12T13:57:03.999Z,26.10
2023-06-12T13:58:09.036Z,25.90
2023-06-12T13:59:03.626Z,25.90
2023-06-12T14:00:08.383Z,25.90
2023-06-12T14:01:06.438Z,25.90
2023-06-12T14:02:03.982Z,25.90
2023-06-12T14:03:03.815Z,25.80
2023-06-12T14:04:06.262Z,25.80
2023-06-12T14:05:05.700Z,25.80
2023-06-12T14:07:04.181Z,25.80
2023-06-12T14:08:06.569Z,25.80
2023-06-12T14:10:03.835Z,25.80
2023-06-12T14:11:03.499Z,25.80
2023-06-12T14:12:03.345Z,25.80